Latest Weather Observations for Walpole North

IDW60801

Issued at 7:04 am WST Wednesday 22 February 2017 (issued every 30 minutes, with the page automatically refreshed every 10 minutes)

About weather observations | Map of weather stations | Latest weather observations for WA | Other Formats
Station Details ID: 009998 Name: NORTH WALPOLE Lat: -34.95 Lon: 116.72 Height: 73.0 m
Data from the previous 72 hours. | See also: Recent months at Walpole North
Date/Time
WST
Temp
°C
App
Temp
°C
Dew
Point
°C
Rel
Hum
%
Delta-T
°C
Wind Press
QNH
hPa
Press
MSL
hPa
Rain since
9am
mm
Dir  Spd
km/h
Gust
km/h
Spd
kts
Gust
kts
22/07:00am 14.6 14.0 13.5 93 0.6 WNW 9 11 5 6 1018.6 1018.4 1.2
22/06:30am 14.2 13.3 13.6 96 0.3 WNW 11 13 6 7 1018.5 1018.3 1.2
22/06:00am 14.0 14.0 13.7 98 0.2 WSW 6 7 3 4 1018.3 1018.1 1.2
22/05:30am 13.8 13.5 13.3 97 0.3 W 7 11 4 6 1018.0 1017.8 1.2
22/05:00am 13.9 12.8 13.1 95 0.4 WNW 11 17 6 9 1017.8 1017.6 1.0
22/04:30am 13.6 12.6 12.3 92 0.7 W 9 15 5 8 1017.5 1017.3 1.0
22/04:00am 14.5 12.2 11.8 84 1.5 WSW 15 28 8 15 1017.3 1017.1 1.0
22/03:30am 14.9 13.4 10.5 75 2.3 WSW 9 15 5 8 1017.2 1017.0 1.0
22/03:00am 14.9 12.9 10.3 74 2.4 WSW 11 15 6 8 1017.0 1016.8 1.0
22/02:30am 14.8 12.7 9.6 71 2.7 WSW 11 17 6 9 1016.9 1016.7 1.0
22/02:00am 14.7 12.9 9.3 70 2.8 WSW 9 13 5 7 1016.8 1016.6 1.0
22/01:30am 14.9 13.1 9.3 69 2.9 WSW 9 19 5 10 1017.0 1016.8 1.0
22/01:00am 14.7 12.7 10.3 75 2.3 WSW 11 19 6 10 1017.0 1016.8 1.0
22/12:30am 14.7 13.7 10.9 78 2.0 W 7 13 4 7 1017.2 1017.0 1.0
22/12:00am 14.6 13.2 10.8 78 2.0 WSW 9 13 5 7 1017.4 1017.2 1.0
 
Date/Time
WST
Temp
°C
App
Temp
°C
Dew
Point
°C
Rel
Hum
%
Delta-T
°C
Wind Press
QNH
hPa
Press
MSL
hPa
Rain since
9am
mm
Dir  Spd
km/h
Gust
km/h
Spd
kts
Gust
kts
21/11:30pm 14.9 12.6 10.5 75 2.3 SW 13 19 7 10 1017.4 1017.2 1.0
21/11:00pm 14.7 13.0 9.7 72 2.6 WSW 9 13 5 7 1017.4 1017.2 1.0
21/10:30pm 14.7 12.8 8.9 68 3.0 WSW 9 13 5 7 1017.4 1017.2 1.0
21/10:00pm 14.8 12.7 8.3 65 3.3 SW 9 15 5 8 1017.5 1017.3 1.0
21/09:30pm 14.9 12.8 8.4 65 3.3 SW 9 15 5 8 1017.4 1017.2 1.0
21/09:00pm 14.8 11.9 8.1 64 3.4 WSW 13 26 7 14 1017.4 1017.2 1.0
21/08:30pm 14.5 11.8 7.3 62 3.5 WSW 11 15 6 8 1017.1 1016.9 1.0
21/08:00pm 14.6 10.8 7.4 62 3.6 WSW 17 24 9 13 1016.9 1016.7 1.0
21/07:30pm 14.8 11.3 7.1 60 3.8 WSW 15 28 8 15 1016.5 1016.3 1.0
21/07:00pm 15.3 11.0 7.1 58 4.0 WSW 19 30 10 16 1016.2 1016.0 1.0
21/06:30pm 15.5 12.1 9.0 65 3.3 WSW 17 30 9 16 1015.8 1015.6 1.0
21/06:00pm 15.7 11.6 8.7 63 3.6 WSW 20 39 11 21 1015.3 1015.1 1.0
21/05:30pm 15.9 11.5 8.9 63 3.6 SW 22 41 12 22 1014.9 1014.7 1.0
21/05:00pm 16.8 12.5 8.0 56 4.5 SW 20 35 11 19 1014.5 1014.3 1.0
21/04:30pm 17.2 11.4 8.1 55 4.6 SW 28 50 15 27 1014.2 1014.0 1.0
21/04:23pm 16.4 10.5 7.3 55 4.5 WSW 28 50 15 27 1014.3 1014.1 1.0
21/04:00pm 16.6 11.1 9.3 62 3.8 WSW 28 44 15 24 1013.9 1013.7 1.0
21/03:32pm 18.0 12.0 8.6 54 4.9 WSW 30 48 16 26 1013.5 1013.3 1.0
21/03:30pm 17.8 11.8 8.6 55 4.8 WSW 30 46 16 25 1013.5 1013.3 1.0
21/03:00pm 16.8 10.1 8.0 56 4.5 WSW 33 54 18 29 1013.2 1013.0 1.0
21/02:30pm 17.1 10.8 7.5 53 4.8 WSW 30 48 16 26 1013.1 1012.9 1.0
21/02:00pm 16.5 11.7 8.7 60 4.0 SW 24 39 13 21 1012.9 1012.7 1.0
21/01:30pm 17.7 11.4 9.1 57 4.5 WSW 32 50 17 27 1012.6 1012.4 1.0
21/01:02pm 16.7 11.1 8.9 60 4.0 WSW 28 48 15 26 1012.4 1012.2 1.0
21/01:00pm 17.1 11.9 9.0 59 4.2 WSW 26 48 14 26 1012.3 1012.1 1.0
21/12:30pm 14.9 10.4 9.9 72 2.6 WSW 24 46 13 25 1012.2 1012.0 1.0
21/12:13pm 15.4 9.7 8.4 63 3.6 SW 28 48 15 26 1011.9 1011.7 1.0
21/12:00pm 16.6 12.0 9.5 63 3.7 SW 24 39 13 21 1011.7 1011.5 1.0
21/11:30am 13.5 7.8 9.7 78 2.0 WSW 30 59 16 32 1011.8 1011.6 1.0
21/11:07am 16.3 10.6 8.3 59 4.1 WSW 28 52 15 28 1011.4 1011.2 0.8
21/11:00am 15.9 11.7 9.8 67 3.2 WSW 22 44 12 24 1011.5 1011.3 0.8
21/10:38am 13.2 7.6 8.9 75 2.2 SW 28 46 15 25 1011.8 1011.6 0.8
21/10:30am 14.4 10.3 10.0 75 2.3 WSW 22 39 12 21 1011.6 1011.4 0.8
21/10:00am 14.9 9.4 7.7 62 3.6 SW 26 56 14 30 1011.2 1011.0 0.0
21/09:51am 17.0 11.3 8.4 57 4.4 WSW 28 54 15 29 1011.0 1010.8 0.0
21/09:30am 16.4 11.4 8.1 58 4.2 WSW 24 35 13 19 1010.9 1010.7 0.0
21/09:00am 15.2 10.4 8.7 65 3.3 WSW 24 44 13 24 1010.7 1010.5 14.2
21/08:30am 14.7 9.9 8.9 68 3.0 WSW 24 35 13 19 1010.3 1010.0 14.2
21/08:00am 13.5 9.4 8.8 73 2.4 WSW 20 35 11 19 1010.1 1009.8 14.2
21/07:30am 12.7 9.5 9.9 83 1.4 WSW 17 32 9 17 1009.6 1009.3 14.2
21/07:00am 11.5 9.1 10.1 91 0.7 WNW 13 22 7 12 1009.2 1008.9 14.2
21/06:30am 11.2 8.5 8.8 85 1.2 WNW 13 20 7 11 1008.9 1008.6 14.0
21/06:00am 12.8 8.8 9.1 78 1.9 WSW 20 41 11 22 1008.7 1008.4 13.0
21/05:30am 12.2 8.8 11.1 93 0.6 WSW 20 32 11 17 1008.1 1007.8 13.0
21/05:00am 12.5 10.8 12.3 99 0.1 WNW 13 19 7 10 1007.8 1007.5 12.8
21/04:30am 12.8 11.9 12.6 99 0.1 WNW 9 15 5 8 1007.4 1007.1 11.8
21/04:00am 13.0 11.8 12.8 99 0.1 WNW 11 15 6 8 1007.4 1007.1 10.6
21/03:30am 13.1 10.8 12.9 99 0.1 WSW 17 28 9 15 1007.3 1007.0 9.0
21/03:00am 13.4 10.6 13.2 99 0.1 WNW 20 35 11 19 1007.1 1006.8 6.8
21/02:30am 13.6 10.0 12.0 90 0.9 NW 22 35 12 19 1007.1 1006.8 2.6
21/02:00am 14.0 10.6 11.3 84 1.4 NW 20 28 11 15 1006.7 1006.4 0.4
21/01:42am 15.6 10.4 10.2 70 2.8 NW 28 46 15 25 1006.9 1006.6 0.0
21/01:30am 15.4 11.2 9.7 69 3.0 NW 22 33 12 18 1006.8 1006.5 0.0
21/01:00am 15.6 11.0 9.7 68 3.1 NW 24 32 13 17 1007.2 1006.9 0.0
21/12:30am 15.4 11.2 9.7 69 3.0 NW 22 33 12 18 1007.9 1007.6 0.0
21/12:00am 15.1 11.5 9.7 70 2.8 NNW 19 26 10 14 1008.8 1008.5 0.0
 
Date/Time
WST
Temp
°C
App
Temp
°C
Dew
Point
°C
Rel
Hum
%
Delta-T
°C
Wind Press
QNH
hPa
Press
MSL
hPa
Rain since
9am
mm
Dir  Spd
km/h
Gust
km/h
Spd
kts
Gust
kts
20/11:30pm 15.2 12.0 9.8 70 2.8 NNW 17 26 9 14 1009.1 1008.8 0.0
20/11:00pm 15.2 12.0 10.0 71 2.7 NNW 17 20 9 11 1009.6 1009.3 0.0
20/10:30pm 14.8 12.2 10.6 76 2.2 NW 15 20 8 11 1010.3 1010.0 0.0
20/10:00pm 14.8 12.7 11.0 78 2.0 NNW 13 19 7 10 1010.3 1010.0 0.0
20/09:30pm 15.0 14.1 11.2 78 2.0 WNW 7 11 4 6 1010.3 1010.0 0.0
20/09:00pm 14.9 13.6 11.1 78 2.0 W 9 15 5 8 1010.7 1010.5 0.0
20/08:30pm 15.1 14.1 11.1 77 2.1 W 7 13 4 7 1010.5 1010.2 0.0
20/08:00pm 16.0 14.0 11.6 75 2.4 W 13 22 7 12 1010.9 1010.7 0.0
20/07:30pm 16.4 14.5 11.8 74 2.5 W 13 20 7 11 1011.1 1010.9 0.0
20/07:00pm 16.4 14.8 11.6 73 2.6 W 11 17 6 9 1010.6 1010.3 0.0
20/06:30pm 16.8 14.8 11.5 71 2.9 WSW 13 20 7 11 1010.3 1010.0 0.0
20/06:00pm 17.1 14.4 11.8 71 2.9 WSW 17 26 9 14 1010.3 1010.0 0.0
20/05:30pm 17.8 15.6 12.0 69 3.2 SW 15 26 8 14 1010.2 1009.9 0.0
20/05:00pm 19.3 17.6 13.5 69 3.3 SW 15 20 8 11 1010.0 1009.7 0.0
20/04:30pm 17.8 16.8 13.5 76 2.4 SW 11 17 6 9 1010.4 1010.1 0.0
20/04:00pm 17.9 16.4 14.2 79 2.1 SW 15 22 8 12 1010.9 1010.7 0.0
20/03:30pm 17.8 15.9 14.3 80 2.0 SW 17 26 9 14 1010.9 1010.7 0.0
20/03:00pm 17.8 16.5 14.7 82 1.8 SW 15 26 8 14 1011.1 1010.9 0.0
20/02:30pm 18.7 16.8 14.2 75 2.6 SW 17 28 9 15 1011.1 1010.9 0.0
20/02:00pm 19.9 18.6 14.9 73 2.9 SSW 15 26 8 14 1011.1 1010.9 0.0
20/01:30pm 19.9 19.1 15.1 74 2.8 S 13 24 7 13 1011.3 1011.1 0.0
20/01:00pm 20.7 20.1 14.6 68 3.6 S 11 24 6 13 1011.6 1011.4 0.0
20/12:30pm 20.9 19.4 14.3 66 3.9 SW 15 24 8 13 1011.8 1011.6 0.0
20/12:00pm 21.4 20.2 14.1 63 4.3 SSW 13 22 7 12 1011.9 1011.7 0.0
20/11:30am 21.9 20.3 12.7 56 5.3 SW 13 24 7 13 1012.3 1012.1 0.0
20/11:00am 21.3 20.2 11.9 55 5.3 WSW 9 24 5 13 1012.5 1012.3 0.0
20/10:30am 20.6 19.5 13.1 62 4.3 SW 11 17 6 9 1013.0 1012.8 0.0
20/10:00am 20.0 19.2 13.9 68 3.5 SSW 11 20 6 11 1013.4 1013.2 0.0
20/09:30am 18.6 17.3 13.7 73 2.8 SSW 13 20 7 11 1013.7 1013.5 0.0
20/09:00am 19.0 18.3 13.2 69 3.3 S 9 17 5 9 1013.8 1013.6 0.0
20/08:30am 19.1 17.1 13.9 72 3.0 SSW 17 24 9 13 1013.7 1013.5 0.0
20/08:00am 18.5 16.7 13.4 72 2.9 SSW 15 20 8 11 1013.6 1013.4 0.0
20/07:30am 18.2 16.5 13.7 75 2.6 SSW 15 20 8 11 1013.5 1013.3 0.0
20/07:00am 17.5 16.2 13.8 79 2.1 SSW 13 19 7 10 1013.3 1013.1 0.0
20/06:30am 17.1 16.3 14.0 82 1.8 SW 11 20 6 11 1013.3 1013.1 0.0
20/06:00am 16.6 17.5 13.9 84 1.5 SW 2 7 1 4 1013.1 1012.9 0.0
20/05:30am 16.5 16.6 13.8 84 1.5 SSW 6 13 3 7 1012.9 1012.7 0.0
20/05:00am 16.3 16.1 13.6 84 1.5 SW 7 11 4 6 1012.9 1012.7 0.0
20/04:30am 16.4 16.2 13.5 83 1.6 SW 7 11 4 6 1012.9 1012.7 0.0
20/04:00am 16.6 15.2 13.5 82 1.7 SW 13 20 7 11 1012.9 1012.7 0.0
20/03:30am 16.8 16.2 13.5 81 1.9 SW 9 17 5 9 1012.7 1012.5 0.0
20/03:00am 17.2 16.9 14.3 83 1.7 SW 9 17 5 9 1012.7 1012.5 0.0
20/02:30am 17.4 16.8 14.5 83 1.7 WSW 11 19 6 10 1012.7 1012.5 0.0
20/02:00am 17.5 17.4 15.0 85 1.5 SW 9 15 5 8 1012.5 1012.3 0.0
20/01:30am 17.7 17.7 15.1 85 1.5 SW 9 13 5 7 1012.6 1012.4 0.0
20/01:00am 17.8 17.4 15.2 85 1.5 SW 11 19 6 10 1012.7 1012.5 0.0
20/12:30am 18.0 17.5 15.8 87 1.3 WSW 13 20 7 11 1012.9 1012.7 0.0
20/12:00am 18.3 17.6 16.3 88 1.2 WSW 15 24 8 13 1013.3 1013.1 0.0
 
Date/Time
WST
Temp
°C
App
Temp
°C
Dew
Point
°C
Rel
Hum
%
Delta-T
°C
Wind Press
QNH
hPa
Press
MSL
hPa
Rain since
9am
mm
Dir  Spd
km/h
Gust
km/h
Spd
kts
Gust
kts
19/11:30pm 19.1 19.1 17.2 89 1.2 WSW 13 19 7 10 1013.3 1013.1 0.0
19/11:00pm 19.5 20.4 17.6 89 1.2 W 9 13 5 7 1013.2 1013.0 0.0
19/10:30pm 19.6 20.0 16.3 81 2.0 W 9 15 5 8 1013.2 1013.0 0.0
19/10:00pm 20.1 20.1 15.3 74 2.8 W 9 11 5 6 1013.0 1012.8 0.0
19/09:30pm 20.0 20.5 15.0 73 2.9 W 6 9 3 5 1013.0 1012.8 0.0
19/09:00pm 20.5 20.7 14.8 70 3.4 WSW 7 11 4 6 1013.0 1012.8 0.0
19/08:30pm 21.1 21.0 14.0 64 4.1 SW 7 9 4 5 1012.7 1012.5 0.0
19/08:00pm 21.5 22.2 13.4 60 4.7 SW 2 7 1 4 1012.4 1012.2 0.0
19/07:30pm 22.0 23.1 13.6 59 4.9 CALM 0 0 0 0 1012.4 1012.2 0.0
19/07:00pm 22.9 22.9 13.7 56 5.4 SW 6 7 3 4 1012.5 1012.3 0.0
19/06:30pm 24.3 23.5 11.6 45 7.2 SW 7 9 4 5 1012.4 1012.2 0.0
19/06:00pm 25.2 23.6 10.3 39 8.3 SSW 9 15 5 8 1012.2 1012.0 0.0
19/05:30pm 26.5 24.3 9.4 34 9.4 SSW 11 15 6 8 1012.3 1012.1 0.0
19/05:00pm 27.0 24.8 9.4 33 9.7 SSW 11 15 6 8 1012.2 1012.0 0.0
19/04:30pm 28.4 26.4 10.1 32 10.3 SW 11 17 6 9 1012.2 1012.0 0.0
19/04:00pm 28.9 26.4 11.0 33 10.3 SW 15 20 8 11 1012.1 1011.9 0.0
19/03:30pm 29.4 27.1 11.9 34 10.2 SW 15 24 8 13 1012.2 1012.0 0.0
19/03:00pm 28.9 26.9 12.8 37 9.5 SW 15 24 8 13 1012.4 1012.2 0.0
19/02:30pm 29.4 28.1 13.6 38 9.5 SW 13 22 7 12 1012.6 1012.4 0.0
19/02:00pm 27.8 27.5 16.4 50 7.1 SSE 13 19 7 10 1012.8 1012.6 0.0
19/01:30pm 29.6 29.2 16.1 44 8.4 SSE 13 19 7 10 1012.9 1012.7 0.0
19/01:00pm 29.7 30.2 16.5 45 8.3 S 9 17 5 9 1013.0 1012.8 0.0
19/12:30pm 30.9 31.2 16.1 41 9.3 WNW 9 19 5 10 1012.9 1012.7 0.0
19/12:00pm 31.0 30.8 13.7 34 10.4 NW 7 19 4 10 1013.2 1013.0 0.0
19/11:30am 30.1 29.8 13.4 36 10.0 NNW 7 19 4 10 1013.5 1013.3 0.0
19/11:00am 29.5 28.2 13.7 38 9.5 NW 13 20 7 11 1013.9 1013.7 0.0
19/10:30am 28.4 28.3 15.0 44 8.2 N 9 17 5 9 1014.5 1014.3 0.0
19/10:00am 27.0 26.6 14.1 45 7.7 NNE 9 15 5 8 1014.7 1014.5 0.0
19/09:30am 24.9 23.2 12.5 46 7.2 NNE 13 20 7 11 1015.3 1015.1 0.0
19/09:00am 24.0 23.2 12.9 50 6.4 N 9 19 5 10 1015.6 1015.4 0.0
19/08:30am 22.7 22.5 12.9 54 5.6 N 6 13 3 7 1015.9 1015.7 0.0
19/08:00am 21.2 21.0 13.1 60 4.6 E 6 9 3 5 1016.4 1016.2 0.0
19/07:30am 19.3 18.8 12.6 65 3.8 NE 7 11 4 6 1016.4 1016.2 0.0

Other Formats:

Comma delimited format used in spreadsheet applications
http://www.bom.gov.au/fwo/IDW60801/IDW60801.95647.axf

JavaScript Object Notation format (JSON) in row-major order
http://www.bom.gov.au/fwo/IDW60801/IDW60801.95647.json